Time;durP1;ratioP1;P1;durP2;ratioP2;P2;SDS_P1;SDS_P2;PMS_P1;PMS_P2;Temp;Humidity;BMP_temperature;BMP_pressure;BME280_temperature;BME280_humidity;BME280_pressure;Samples;Min_cycle;Max_cycle;Signal;HPM_P1;HPM_P2
2022/05/19 00:01:07;;;;;;;38.00;31.02;;;16.80;99.90;;;;;;5035476;28;20049;-85
2022/05/19 00:03:36;;;;;;;38.47;31.70;;;16.80;99.90;;;;;;5037209;28;20491;-87
2022/05/19 00:06:02;;;;;;;40.35;32.65;;;16.80;99.90;;;;;;5033328;28;20103;-87
2022/05/19 00:08:28;;;;;;;38.33;32.63;;;16.80;99.90;;;;;;5049679;28;20057;-86
2022/05/19 00:10:55;;;;;;;41.70;32.60;;;16.80;99.90;;;;;;5036287;28;20049;-85
2022/05/19 00:13:22;;;;;;;41.70;33.40;;;16.50;99.90;;;;;;5052301;28;20447;-87
2022/05/19 00:15:47;;;;;;;46.85;36.33;;;16.50;99.90;;;;;;5053774;28;20543;-87
2022/05/19 00:18:13;;;;;;;47.80;36.75;;;16.50;99.90;;;;;;5053893;28;20053;-87
2022/05/19 00:20:39;;;;;;;48.55;36.65;;;16.60;99.90;;;;;;5057957;28;20509;-87
2022/05/19 00:23:04;;;;;;;45.33;36.38;;;16.70;99.90;;;;;;5054077;28;20094;-86
2022/05/19 00:25:30;;;;;;;51.30;38.95;;;16.80;99.90;;;;;;5051804;28;20094;-85
2022/05/19 00:27:56;;;;;;;45.75;37.47;;;16.80;99.90;;;;;;5052300;28;20056;-85
2022/05/19 00:30:22;;;;;;;48.80;40.13;;;16.90;99.90;;;;;;5051738;28;20123;-86
2022/05/19 00:32:48;;;;;;;52.58;42.00;;;16.80;99.90;;;;;;5051321;28;20099;-86
2022/05/19 00:35:15;;;;;;;58.55;43.08;;;16.70;99.90;;;;;;5052604;28;20076;-85
2022/05/19 00:37:40;;;;;;;51.85;40.20;;;16.70;99.90;;;;;;5032117;28;20045;-84
2022/05/19 00:40:07;;;;;;;53.25;43.53;;;16.60;99.90;;;;;;5033489;28;20048;-86
2022/05/19 00:42:44;;;;;;;58.80;46.80;;;16.70;99.90;;;;;;5050831;28;20089;-86
2022/05/19 00:45:22;;;;;;;59.10;46.72;;;16.60;99.90;;;;;;5036805;28;20048;-84
2022/05/19 00:47:51;;;;;;;65.53;48.38;;;16.60;99.90;;;;;;5018900;28;20080;-85
2022/05/19 00:50:28;;;;;;;60.65;49.45;;;16.60;99.90;;;;;;5051607;28;20053;-85
2022/05/19 00:52:59;;;;;;;69.55;50.85;;;16.60;99.90;;;;;;5034791;28;20775;-85
2022/05/19 00:55:30;;;;;;;68.75;52.00;;;16.30;99.90;;;;;;5051616;28;20178;-86
2022/05/19 00:57:59;;;;;;;70.28;52.95;;;16.40;99.90;;;;;;5016480;28;20049;-85
2022/05/19 01:00:25;;;;;;;67.50;52.80;;;16.30;99.90;;;;;;5040996;28;20044;-86
2022/05/19 01:02:53;;;;;;;68.45;52.08;;;16.30;99.90;;;;;;5033147;28;20660;-86
2022/05/19 01:05:32;;;;;;;70.78;54.05;;;16.20;99.90;;;;;;5030244;28;20436;-86
2022/05/19 01:08:12;;;;;;;71.68;55.00;;;16.20;99.90;;;;;;5051202;28;20044;-86
2022/05/19 01:10:38;;;;;;;73.63;54.67;;;16.20;99.90;;;;;;5033491;28;20477;-85
2022/05/19 01:13:04;;;;;;;66.80;51.75;;;16.20;99.90;;;;;;5032077;28;20045;-86
2022/05/19 01:15:32;;;;;;;68.72;53.05;;;16.10;99.90;;;;;;5032485;28;20049;-87
2022/05/19 01:17:59;;;;;;;66.07;51.60;;;16.00;99.90;;;;;;5029095;28;20053;-86
2022/05/19 01:20:26;;;;;;;73.32;53.63;;;16.00;99.90;;;;;;5049844;28;20037;-85
2022/05/19 01:22:54;;;;;;;74.15;54.60;;;16.00;99.90;;;;;;5032880;28;20050;-85
2022/05/19 01:25:47;;;;;;;75.03;56.05;;;16.00;99.90;;;;;;5047642;28;20094;-86
2022/05/19 01:28:13;;;;;;;74.47;54.78;;;15.90;99.90;;;;;;5034295;28;20051;-85
2022/05/19 01:30:39;;;;;;;79.65;56.75;;;16.00;99.90;;;;;;5034176;28;20041;-86
2022/05/19 01:33:04;;;;;;;76.20;55.95;;;16.00;99.90;;;;;;5031580;28;20041;-86
2022/05/19 01:35:33;;;;;;;72.35;52.63;;;16.00;99.90;;;;;;5040975;28;20045;-86
2022/05/19 01:38:03;;;;;;;68.75;51.92;;;15.80;99.90;;;;;;5039904;28;20053;-85
2022/05/19 01:40:37;;;;;;;68.63;51.67;;;15.80;99.90;;;;;;5073886;28;20083;-86
2022/05/19 01:43:36;;;;;;;68.93;53.05;;;15.80;99.90;;;;;;5039415;28;20053;-86
2022/05/19 01:46:24;;;;;;;69.35;53.15;;;15.80;99.90;;;;;;5061983;28;20104;-86
2022/05/19 01:48:52;;;;;;;72.10;53.80;;;15.70;99.90;;;;;;5064875;28;20057;-86
2022/05/19 01:51:56;;;;;;;72.03;58.15;;;15.70;99.90;;;;;;5051411;28;20053;-85
2022/05/19 01:54:31;;;;;;;84.93;61.70;;;15.70;99.90;;;;;;5020786;28;20083;-86
2022/05/19 01:57:02;;;;;;;77.15;58.03;;;15.70;99.90;;;;;;4997340;28;20088;-86
2022/05/19 02:00:09;;;;;;;76.53;58.75;;;15.70;99.90;;;;;;5017039;28;20060;-86
2022/05/19 02:02:35;;;;;;;72.53;57.42;;;15.60;99.90;;;;;;4995573;28;20127;-86
2022/05/19 02:05:14;;;;;;;82.28;64.88;;;15.70;99.90;;;;;;5036263;28;20067;-86
2022/05/19 02:07:41;;;;;;;88.22;66.25;;;15.70;99.90;;;;;;5033408;28;20049;-86
2022/05/19 02:10:13;;;;;;;95.03;69.10;;;15.70;99.90;;;;;;5051197;28;20056;-86
2022/05/19 02:12:39;;;;;;;85.40;63.72;;;15.80;99.90;;;;;;5034324;28;20145;-86
2022/05/19 02:15:09;;;;;;;77.60;59.65;;;15.70;99.90;;;;;;5030656;28;20128;-87
2022/05/19 02:17:34;;;;;;;75.32;58.35;;;15.60;99.90;;;;;;5037295;28;20053;-87
2022/05/19 02:20:07;;;;;;;87.82;62.65;;;15.60;99.90;;;;;;5025211;28;20079;-86
2022/05/19 02:22:39;;;;;;;101.60;72.32;;;15.50;99.90;;;;;;5013939;28;20041;-87
2022/05/19 02:25:26;;;;;;;105.72;76.20;;;15.60;99.90;;;;;;5027577;28;20068;-86
2022/05/19 02:27:59;;;;;;;102.53;73.75;;;15.60;99.90;;;;;;5023275;28;20055;-85
2022/05/19 02:30:27;;;;;;;106.55;76.78;;;15.60;99.90;;;;;;5034930;28;20408;-87
2022/05/19 02:32:53;;;;;;;105.75;77.53;;;15.50;99.90;;;;;;5033665;28;20093;-86
2022/05/19 02:35:18;;;;;;;103.50;76.30;;;15.50;99.90;;;;;;5047933;28;20084;-87
2022/05/19 02:37:44;;;;;;;116.30;84.68;;;15.50;99.90;;;;;;5028435;28;20107;-87
2022/05/19 02:40:11;;;;;;;116.47;83.68;;;15.50;99.90;;;;;;5029826;28;20068;-87
2022/05/19 02:42:37;;;;;;;118.68;85.70;;;15.50;99.90;;;;;;5014314;28;20055;-86
2022/05/19 02:45:03;;;;;;;115.97;85.03;;;15.50;99.90;;;;;;5032545;28;20152;-86
2022/05/19 02:47:29;;;;;;;117.00;87.55;;;15.40;99.90;;;;;;5051128;28;20060;-86
2022/05/19 02:49:54;;;;;;;121.53;88.63;;;15.40;99.90;;;;;;5033821;28;20049;-87
2022/05/19 02:52:20;;;;;;;114.20;84.25;;;15.50;99.90;;;;;;5034528;28;20064;-87
2022/05/19 02:54:45;;;;;;;112.38;84.70;;;15.40;99.90;;;;;;5029738;28;20060;-87
2022/05/19 02:57:11;;;;;;;120.22;87.97;;;15.50;99.90;;;;;;5036248;28;20138;-87
2022/05/19 02:59:37;;;;;;;122.78;88.88;;;15.50;99.90;;;;;;5046588;28;20428;-87
2022/05/19 03:02:03;;;;;;;123.40;87.10;;;15.40;99.90;;;;;;5031844;28;20045;-87
2022/05/19 03:04:28;;;;;;;109.55;82.75;;;15.40;99.90;;;;;;5033120;28;20037;-88
2022/05/19 03:06:54;;;;;;;110.85;82.65;;;15.40;99.90;;;;;;5033267;28;20557;-87
2022/05/19 03:09:21;;;;;;;98.72;78.72;;;15.30;99.90;;;;;;5050103;28;20057;-87
2022/05/19 03:11:47;;;;;;;106.70;79.50;;;15.30;99.90;;;;;;5049419;28;20088;-86
2022/05/19 03:14:12;;;;;;;106.47;80.15;;;15.20;99.90;;;;;;5050593;28;20072;-87
2022/05/19 03:16:39;;;;;;;107.40;81.38;;;15.20;99.90;;;;;;5012444;28;20049;-87
2022/05/19 03:19:05;;;;;;;109.30;80.85;;;15.20;99.90;;;;;;5031360;28;20136;-88
2022/05/19 03:21:31;;;;;;;107.45;80.68;;;15.30;99.90;;;;;;5033087;28;20187;-88
2022/05/19 03:23:57;;;;;;;107.78;80.05;;;15.30;99.90;;;;;;5049678;28;20128;-87
2022/05/19 03:26:22;;;;;;;107.25;77.95;;;15.30;99.90;;;;;;5032505;28;20480;-88
2022/05/19 03:28:48;;;;;;;107.55;79.45;;;15.30;99.90;;;;;;5049245;28;20187;-88
2022/05/19 03:31:13;;;;;;;103.18;77.82;;;15.30;99.90;;;;;;5049562;28;20480;-87
2022/05/19 03:33:39;;;;;;;101.32;74.78;;;15.40;99.90;;;;;;5050005;28;20140;-88
2022/05/19 03:36:05;;;;;;;112.05;78.75;;;15.50;99.90;;;;;;5033525;28;20111;-88
2022/05/19 03:38:31;;;;;;;107.38;76.15;;;15.60;99.90;;;;;;5052299;28;20053;-86
2022/05/19 03:40:56;;;;;;;103.00;77.55;;;15.60;99.90;;;;;;5053710;28;20080;-88
2022/05/19 03:43:22;;;;;;;104.72;76.38;;;15.70;99.90;;;;;;5053464;28;20535;-88
2022/05/19 03:45:48;;;;;;;102.60;78.47;;;15.70;99.90;;;;;;5052334;28;20048;-87
2022/05/19 03:48:14;;;;;;;103.20;77.25;;;15.60;99.90;;;;;;5051617;28;20080;-88
2022/05/19 03:50:42;;;;;;;106.15;78.38;;;15.60;99.90;;;;;;5052697;28;20757;-88
2022/05/19 03:53:08;;;;;;;104.20;78.40;;;15.60;99.90;;;;;;5033367;28;20052;-87
2022/05/19 03:55:34;;;;;;;99.38;75.63;;;16.90;99.90;;;;;;5032979;28;20060;-86
2022/05/19 03:57:59;;;;;;;104.65;77.90;;;15.60;99.90;;;;;;5049364;28;20103;-86
2022/05/19 04:00:25;;;;;;;107.57;79.57;;;15.60;99.90;;;;;;5053812;28;20424;-86
2022/05/19 04:02:51;;;;;;;106.93;79.82;;;15.60;99.90;;;;;;5052006;28;20216;-86
2022/05/19 04:05:16;;;;;;;103.45;79.00;;;15.60;99.90;;;;;;5052799;28;20052;-86
2022/05/19 04:07:42;;;;;;;103.63;75.88;;;15.60;99.90;;;;;;5032380;28;20053;-86
2022/05/19 04:10:08;;;;;;;96.45;74.82;;;15.60;99.90;;;;;;5053082;28;20045;-86
2022/05/19 04:12:34;;;;;;;100.28;76.18;;;15.60;99.90;;;;;;5052798;28;20045;-85
2022/05/19 04:15:00;;;;;;;97.10;73.28;;;15.60;99.90;;;;;;5014597;28;20045;-84
2022/05/19 04:17:26;;;;;;;102.30;74.07;;;15.70;99.90;;;;;;5050184;28;20061;-86
2022/05/19 04:19:51;;;;;;;101.10;75.60;;;15.70;99.90;;;;;;5052309;28;20052;-86
2022/05/19 04:22:17;;;;;;;90.30;71.78;;;15.70;99.90;;;;;;5036822;28;20056;-86
2022/05/19 04:24:43;;;;;;;91.45;71.47;;;15.70;99.90;;;;;;5035856;28;20059;-85
2022/05/19 04:27:11;;;;;;;102.82;77.60;;;15.80;99.90;;;;;;5036530;28;20041;-86
2022/05/19 04:29:37;;;;;;;102.38;75.53;;;15.80;99.90;;;;;;5035235;28;20060;-85
2022/05/19 04:32:03;;;;;;;96.78;74.55;;;15.80;99.90;;;;;;5036377;28;20075;-86
2022/05/19 04:34:29;;;;;;;98.18;75.03;;;16.00;99.90;;;;;;5019765;28;20049;-86
2022/05/19 04:36:54;;;;;;;99.60;76.93;;;16.10;99.90;;;;;;5051185;28;20082;-86
2022/05/19 04:39:20;;;;;;;96.93;74.95;;;16.10;99.90;;;;;;5032921;28;20048;-86
2022/05/19 04:41:46;;;;;;;94.70;72.82;;;16.20;99.90;;;;;;5043171;28;20053;-85
2022/05/19 04:44:12;;;;;;;90.72;69.50;;;16.50;99.90;;;;;;5056702;28;20167;-87
2022/05/19 04:46:37;;;;;;;95.47;72.85;;;16.70;99.90;;;;;;5038172;28;20067;-85
2022/05/19 04:49:03;;;;;;;87.18;64.97;;;17.00;99.90;;;;;;5035845;28;20072;-87
2022/05/19 04:51:29;;;;;;;82.47;64.90;;;17.30;99.90;;;;;;5061449;28;20033;-87
2022/05/19 04:53:54;;;;;;;76.90;61.33;;;17.50;99.90;;;;;;5056970;28;20045;-86
2022/05/19 04:56:20;;;;;;;77.93;63.55;;;17.80;99.90;;;;;;5036321;28;20047;-86
2022/05/19 04:58:46;;;;;;;76.57;59.88;;;18.30;99.90;;;;;;5035088;28;20049;-87
2022/05/19 05:01:11;;;;;;;72.40;59.05;;;18.40;99.90;;;;;;5035895;28;20071;-88
2022/05/19 05:03:37;;;;;;;77.57;60.60;;;18.20;99.90;;;;;;5053075;28;20041;-87
2022/05/19 05:06:03;;;;;;;76.72;62.58;;;18.20;99.90;;;;;;5051744;28;20037;-87
2022/05/19 05:08:28;;;;;;;78.85;62.72;;;18.10;99.90;;;;;;5052182;28;20057;-87
2022/05/19 05:10:54;;;;;;;73.07;57.65;;;17.90;99.90;;;;;;5051124;28;20512;-87
2022/05/19 05:13:20;;;;;;;68.03;58.40;;;18.00;99.90;;;;;;5051304;28;20080;-87
2022/05/19 05:15:45;;;;;;;76.65;61.15;;;17.80;99.90;;;;;;5034558;28;20087;-87
2022/05/19 05:18:11;;;;;;;71.45;56.85;;;17.80;99.90;;;;;;5034746;28;20236;-88
2022/05/19 05:20:37;;;;;;;73.63;57.88;;;17.80;99.90;;;;;;5050530;28;20060;-86
2022/05/19 05:23:03;;;;;;;69.60;56.67;;;17.80;99.90;;;;;;5025570;28;20083;-87
2022/05/19 05:25:29;;;;;;;67.55;55.28;;;17.90;99.90;;;;;;5034372;28;20067;-87
2022/05/19 05:27:57;;;;;;;63.78;53.47;;;18.00;99.90;;;;;;5050608;28;20049;-87
2022/05/19 05:30:23;;;;;;;60.05;48.22;;;18.20;99.90;;;;;;5031781;28;20128;-87
2022/05/19 05:32:49;;;;;;;61.13;49.05;;;18.50;99.90;;;;;;5032824;28;20064;-86
2022/05/19 05:35:14;;;;;;;58.28;46.55;;;18.80;99.90;;;;;;5035172;28;20623;-86
2022/05/19 05:37:40;;;;;;;50.63;43.67;;;18.90;99.90;;;;;;5035414;28;20393;-87
2022/05/19 05:40:10;;;;;;;51.05;42.35;;;18.90;99.90;;;;;;5051238;28;20136;-87
2022/05/19 05:42:37;;;;;;;49.97;43.13;;;19.00;99.90;;;;;;5035621;28;20127;-87
2022/05/19 05:45:03;;;;;;;49.55;41.78;;;19.00;99.90;;;;;;5034806;28;20064;-87
2022/05/19 05:47:29;;;;;;;43.83;39.00;;;19.00;99.90;;;;;;5051306;28;20413;-87
2022/05/19 05:49:55;;;;;;;42.90;37.22;;;19.00;99.90;;;;;;5050034;28;20044;-86
2022/05/19 05:52:20;;;;;;;43.78;33.90;;;19.60;99.90;;;;;;5033938;28;20041;-86
2022/05/19 05:54:46;;;;;;;36.90;32.25;;;20.60;99.90;;;;;;5050088;28;20524;-86
2022/05/19 05:57:14;;;;;;;33.70;29.17;;;21.60;99.90;;;;;;5050084;28;20053;-87
2022/05/19 05:59:39;;;;;;;33.17;28.98;;;22.40;99.90;;;;;;5030838;28;20648;-86
2022/05/19 06:02:05;;;;;;;30.88;27.67;;;22.90;99.90;;;;;;5041719;28;20048;-86
2022/05/19 06:04:31;;;;;;;30.40;26.63;;;23.50;99.90;;;;;;5050445;28;20048;-86
2022/05/19 06:06:56;;;;;;;27.85;24.67;;;23.90;99.90;;;;;;5050450;28;20481;-89
2022/05/19 06:09:22;;;;;;;29.65;25.48;;;24.00;99.90;;;;;;5050884;28;20048;-87
2022/05/19 06:11:48;;;;;;;27.40;24.70;;;24.10;99.90;;;;;;5050573;28;20059;-85
2022/05/19 06:14:13;;;;;;;27.08;24.42;;;24.40;99.90;;;;;;5051864;28;20045;-86
2022/05/19 06:16:39;;;;;;;24.50;22.00;;;24.70;99.90;;;;;;5054849;28;20041;-85
2022/05/19 06:19:05;;;;;;;24.27;21.77;;;24.70;99.90;;;;;;5054200;28;20051;-86
2022/05/19 06:21:34;;;;;;;21.25;19.33;;;23.90;99.90;;;;;;5049503;28;20049;-85
2022/05/19 06:24:00;;;;;;;21.33;19.13;;;23.80;99.90;;;;;;5049051;28;20485;-87
2022/05/19 06:26:26;;;;;;;20.98;18.88;;;23.50;99.90;;;;;;5049393;28;20048;-86
2022/05/19 06:28:52;;;;;;;19.15;16.83;;;23.20;99.90;;;;;;5032663;28;20053;-87
2022/05/19 06:31:18;;;;;;;19.55;17.40;;;23.00;99.90;;;;;;5032672;28;20377;-86
2022/05/19 06:33:44;;;;;;;19.58;17.48;;;22.60;99.90;;;;;;5032919;28;20048;-86
2022/05/19 06:36:10;;;;;;;19.30;17.10;;;22.90;99.90;;;;;;5049367;28;20102;-86
2022/05/19 06:38:36;;;;;;;18.65;16.65;;;22.80;99.90;;;;;;5051287;28;20088;-87
2022/05/19 06:43:47;;;;;;;18.75;16.73;;;23.80;99.90;;;;;;5032826;28;20056;-88
2022/05/19 06:46:13;;;;;;;18.23;16.42;;;23.90;99.90;;;;;;5029627;28;20045;-87
2022/05/19 06:48:39;;;;;;;19.27;17.38;;;24.10;99.90;;;;;;4997474;28;20152;-87
2022/05/19 06:51:04;;;;;;;17.98;15.80;;;25.40;99.90;;;;;;5029060;28;20052;-86
2022/05/19 06:53:30;;;;;;;18.98;16.98;;;26.00;99.90;;;;;;5013684;28;20053;-88
2022/05/19 06:55:56;;;;;;;21.83;16.02;;;25.90;99.90;;;;;;5013115;28;20088;-86
2022/05/19 06:58:21;;;;;;;17.02;15.38;;;26.40;99.90;;;;;;4997341;28;20047;-87
2022/05/19 07:00:47;;;;;;;19.63;17.35;;;26.40;99.90;;;;;;5029854;28;20056;-86
2022/05/19 07:03:12;;;;;;;19.73;16.35;;;26.80;99.90;;;;;;5030609;28;20041;-87
2022/05/19 07:05:39;;;;;;;16.80;15.05;;;26.60;99.90;;;;;;5029824;28;20045;-87
2022/05/19 07:08:06;;;;;;;16.20;14.35;;;25.90;99.90;;;;;;5029080;28;20056;-87
2022/05/19 07:10:32;;;;;;;16.05;14.35;;;25.10;99.90;;;;;;5029399;28;20046;-88
2022/05/19 07:12:58;;;;;;;15.88;14.27;;;24.90;99.90;;;;;;5012876;28;20053;-87
2022/05/19 07:15:24;;;;;;;15.90;14.20;;;24.30;99.90;;;;;;5016962;28;20405;-86
2022/05/19 07:17:50;;;;;;;18.63;14.32;;;24.20;99.90;;;;;;5029271;28;20106;-86
2022/05/19 07:23:14;;;;;;;16.60;14.90;;;23.20;99.90;;;;;;5022326;28;20460;-87
2022/05/19 07:25:40;;;;;;;16.92;15.23;;;22.60;99.90;;;;;;5013465;28;20424;-88
2022/05/19 07:28:07;;;;;;;18.02;15.02;;;22.40;99.90;;;;;;5012700;28;20509;-86
2022/05/19 07:30:32;;;;;;;19.95;15.88;;;22.20;99.90;;;;;;4997218;28;20050;-87
2022/05/19 07:32:59;;;;;;;18.73;16.25;;;22.10;99.90;;;;;;5012328;28;20057;-85
2022/05/19 07:35:24;;;;;;;20.17;16.17;;;22.60;99.90;;;;;;5029850;28;20509;-89
2022/05/19 07:37:51;;;;;;;18.63;16.80;;;22.20;99.90;;;;;;4999647;28;20046;-91
2022/05/19 07:40:16;;;;;;;18.73;16.08;;;22.00;99.90;;;;;;5039142;28;20041;-91
2022/05/19 07:42:42;;;;;;;21.83;17.73;;;22.10;99.90;;;;;;5056899;28;20052;-92
2022/05/19 07:45:08;;;;;;;19.27;17.17;;;21.90;99.90;;;;;;5052569;28;20036;-91
2022/05/19 07:47:34;;;;;;;22.45;17.85;;;21.90;99.90;;;;;;5055715;28;20035;-88
2022/05/19 07:50:00;;;;;;;21.08;17.60;;;21.90;99.90;;;;;;5012547;28;20041;-87
2022/05/19 07:52:26;;;;;;;21.77;18.80;;;21.90;99.90;;;;;;5035148;28;20037;-88
2022/05/19 07:54:53;;;;;;;25.48;20.52;;;21.70;99.90;;;;;;5056072;28;20052;-88
2022/05/19 07:57:19;;;;;;;24.98;20.52;;;21.60;99.90;;;;;;5054255;28;20040;-89
2022/05/19 07:59:44;;;;;;;27.30;20.05;;;21.40;99.90;;;;;;4997450;28;20056;-91
2022/05/19 08:02:10;;;;;;;27.05;22.38;;;21.60;99.90;;;;;;5014457;28;20428;-88
2022/05/19 08:04:35;;;;;;;25.13;22.33;;;21.20;99.90;;;;;;5043097;28;20464;-85
2022/05/19 08:07:01;;;;;;;26.70;21.67;;;21.10;99.90;;;;;;5012073;28;20479;-88
2022/05/19 08:15:34;;;;;;;28.48;25.38;;;20.70;99.90;;;;;;5023996;28;20474;-85
2022/05/19 08:17:51;;;;;;;29.55;24.80;;;20.60;99.90;;;;;;5031967;28;20080;-86
2022/05/19 08:20:18;;;;;;;29.67;25.58;;;20.50;99.90;;;;;;5041867;28;20085;-86
2022/05/19 08:22:44;;;;;;;28.10;24.33;;;20.60;99.90;;;;;;5044798;28;20049;-86
2022/05/19 08:25:10;;;;;;;30.17;24.63;;;20.70;99.90;;;;;;5032188;28;20047;-86
2022/05/19 08:27:35;;;;;;;29.48;23.33;;;20.70;99.90;;;;;;5046867;28;20402;-86
2022/05/19 08:30:01;;;;;;;28.13;24.40;;;20.80;99.90;;;;;;5032203;28;20049;-86
2022/05/19 08:32:27;;;;;;;25.38;22.40;;;20.80;99.90;;;;;;5031359;28;20060;-86
2022/05/19 08:34:52;;;;;;;29.55;24.58;;;20.70;99.90;;;;;;5010739;28;20053;-86
2022/05/19 08:37:18;;;;;;;30.63;25.60;;;20.80;99.90;;;;;;5049227;28;20067;-86
2022/05/19 08:39:44;;;;;;;32.50;25.80;;;20.80;99.90;;;;;;5047771;28;20511;-92
2022/05/19 08:42:09;;;;;;;32.10;27.58;;;20.80;99.90;;;;;;5037507;28;20033;-86
2022/05/19 08:44:38;;;;;;;34.25;28.45;;;20.80;99.90;;;;;;5051473;28;20041;-84
2022/05/19 08:47:05;;;;;;;33.72;29.80;;;20.80;99.90;;;;;;5033152;28;20053;-88
2022/05/19 08:49:58;;;;;;;33.53;29.98;;;20.80;99.90;;;;;;5048330;28;20047;-93
2022/05/19 08:52:25;;;;;;;31.83;28.63;;;20.50;99.90;;;;;;5046705;28;20064;-87
2022/05/19 08:54:53;;;;;;;31.02;26.73;;;20.60;99.90;;;;;;5032671;28;20053;-88
2022/05/19 08:57:18;;;;;;;30.55;25.85;;;20.60;99.90;;;;;;5041573;28;20101;-91
2022/05/19 09:00:10;;;;;;;28.85;24.77;;;20.90;99.90;;;;;;5045187;28;20041;-88
2022/05/19 09:02:51;;;;;;;27.10;23.23;;;21.00;99.90;;;;;;5039449;28;20054;-93
2022/05/19 09:05:54;;;;;;;27.45;24.52;;;21.20;99.90;;;;;;5033607;28;20080;-91
2022/05/19 09:08:33;;;;;;;26.70;24.02;;;21.30;99.90;;;;;;5046844;28;20052;-91
2022/05/19 09:11:13;;;;;;;28.50;24.45;;;21.20;99.90;;;;;;5038995;28;20072;-92
2022/05/19 09:13:45;;;;;;;31.58;25.90;;;21.50;99.90;;;;;;5042085;28;20056;-94
2022/05/19 09:16:15;;;;;;;30.25;27.00;;;21.70;99.90;;;;;;5057347;28;20116;-90
2022/05/19 09:18:58;;;;;;;32.03;27.58;;;21.90;99.90;;;;;;5039165;28;20077;-94
2022/05/19 09:21:23;;;;;;;31.42;27.23;;;22.00;99.90;;;;;;5056858;28;20060;-94
2022/05/19 09:23:49;;;;;;;27.60;24.48;;;21.70;99.90;;;;;;5041142;28;20056;-92
2022/05/19 09:26:52;;;;;;;30.08;26.98;;;21.90;99.90;;;;;;5036924;28;20080;-87
2022/05/19 09:29:20;;;;;;;29.50;26.45;;;22.00;99.90;;;;;;5039301;28;20045;-90
2022/05/19 09:31:49;;;;;;;29.17;25.98;;;22.30;99.90;;;;;;5032774;28;20061;-88
2022/05/19 09:34:15;;;;;;;29.00;25.90;;;22.30;99.90;;;;;;5033009;28;20132;-90
2022/05/19 09:37:00;;;;;;;24.05;21.55;;;22.60;99.90;;;;;;5016602;28;20211;-90
2022/05/19 09:39:27;;;;;;;25.98;23.00;;;22.50;99.90;;;;;;5032509;28;20053;-91
2022/05/19 09:41:54;;;;;;;25.63;23.02;;;22.20;99.90;;;;;;5032239;28;20052;-92
2022/05/19 09:44:23;;;;;;;23.13;20.67;;;22.50;99.90;;;;;;5055282;28;20084;-93
2022/05/19 09:46:52;;;;;;;23.02;20.63;;;22.80;99.90;;;;;;5024367;28;20087;-91
2022/05/19 09:49:28;;;;;;;22.60;20.30;;;23.10;99.90;;;;;;5056894;28;20037;-92
2022/05/19 09:51:59;;;;;;;22.33;20.02;;;23.70;99.90;;;;;;5034119;28;20092;-89
2022/05/19 09:54:25;;;;;;;23.83;21.52;;;23.50;99.90;;;;;;5029044;28;20095;-87
2022/05/19 09:56:54;;;;;;;23.08;20.58;;;23.70;99.90;;;;;;5031430;28;20119;-87
2022/05/19 09:59:24;;;;;;;23.90;20.80;;;23.90;99.90;;;;;;5031125;28;20144;-88
2022/05/19 10:01:51;;;;;;;23.10;20.75;;;24.20;99.90;;;;;;5017540;28;20060;-90
2022/05/19 10:04:25;;;;;;;25.65;22.90;;;24.40;99.90;;;;;;5031450;28;20385;-89
2022/05/19 10:06:56;;;;;;;23.58;21.20;;;24.40;99.90;;;;;;5033028;28;20500;-91
2022/05/19 10:09:24;;;;;;;25.48;22.75;;;24.60;99.90;;;;;;5030915;28;20045;-91
2022/05/19 10:12:00;;;;;;;24.90;22.58;;;24.60;99.90;;;;;;5017324;28;20057;-89
2022/05/19 10:14:28;;;;;;;26.98;22.48;;;24.20;99.90;;;;;;5038871;28;20108;-89
2022/05/19 10:17:22;;;;;;;24.95;22.45;;;24.60;99.90;;;;;;5013988;28;20052;-89
2022/05/19 10:19:57;;;;;;;23.65;21.00;;;24.20;99.90;;;;;;5014770;28;20413;-88
2022/05/19 10:22:46;;;;;;;25.02;22.58;;;24.50;99.90;;;;;;5034165;28;20049;-88
2022/05/19 10:25:16;;;;;;;23.85;21.35;;;24.30;99.90;;;;;;5019222;28;20060;-90
2022/05/19 10:31:05;;;;;;;23.13;20.70;;;24.00;99.90;;;;;;5049903;28;20115;-89
2022/05/19 10:34:08;;;;;;;23.65;21.33;;;23.70;99.90;;;;;;5030366;28;20057;-88
2022/05/19 10:36:42;;;;;;;24.02;21.52;;;23.50;99.90;;;;;;5047929;28;20109;-88
2022/05/19 10:39:14;;;;;;;25.02;22.33;;;23.40;99.90;;;;;;5050044;28;20040;-90
2022/05/19 10:41:48;;;;;;;25.65;23.05;;;23.50;99.90;;;;;;5050488;28;20040;-91
2022/05/19 10:44:23;;;;;;;25.60;22.88;;;23.30;99.90;;;;;;5022062;28;20587;-89
2022/05/19 10:46:56;;;;;;;24.17;21.77;;;23.40;99.90;;;;;;5035644;28;20128;-91
2022/05/19 10:49:45;;;;;;;26.15;23.63;;;23.80;99.90;;;;;;5037866;28;20092;-87
2022/05/19 10:52:27;;;;;;;26.55;23.35;;;24.70;99.90;;;;;;5053094;28;20063;-89
2022/05/19 10:55:07;;;;;;;24.17;21.50;;;25.40;99.90;;;;;;5051839;28;20119;-88
2022/05/19 10:57:56;;;;;;;26.15;23.48;;;25.90;99.90;;;;;;5033554;28;20060;-86
2022/05/19 11:00:46;;;;;;;23.88;21.38;;;26.70;99.90;;;;;;5054730;28;20037;-86
2022/05/19 11:03:32;;;;;;;23.88;21.25;;;26.50;99.90;;;;;;5021711;28;20091;-89
2022/05/19 11:06:18;;;;;;;26.23;23.48;;;26.20;99.90;;;;;;5028522;28;20048;-88
2022/05/19 11:09:02;;;;;;;25.08;22.50;;;25.00;99.90;;;;;;5036953;28;20464;-88
2022/05/19 11:11:47;;;;;;;24.85;22.40;;;24.90;99.90;;;;;;5049752;28;20069;-89
2022/05/19 11:14:25;;;;;;;25.70;23.20;;;25.00;99.90;;;;;;5052420;28;20061;-90
2022/05/19 11:17:07;;;;;;;24.95;22.63;;;24.90;99.90;;;;;;5034483;28;20072;-89
2022/05/19 11:19:35;;;;;;;22.15;19.95;;;25.30;99.90;;;;;;5049465;28;20060;-89
2022/05/19 11:22:10;;;;;;;23.67;21.27;;;25.10;99.90;;;;;;5051319;28;20069;-89
2022/05/19 11:27:58;;;;;;;21.77;19.58;;;25.50;99.90;;;;;;5030476;28;20049;-90
2022/05/19 11:30:37;;;;;;;20.35;18.08;;;25.30;99.90;;;;;;5031608;28;20060;-87
2022/05/19 11:33:05;;;;;;;21.00;18.33;;;25.60;99.90;;;;;;5049217;28;20095;-87
2022/05/19 11:35:40;;;;;;;19.98;17.20;;;26.00;99.90;;;;;;5036773;28;20045;-87
2022/05/19 11:38:20;;;;;;;18.08;16.38;;;25.90;99.90;;;;;;5035313;28;20106;-91
2022/05/19 11:41:02;;;;;;;19.58;17.42;;;26.20;99.90;;;;;;5037863;28;20053;-92
2022/05/19 11:43:59;;;;;;;18.00;16.13;;;26.30;99.90;;;;;;5022072;28;20045;-88
2022/05/19 11:46:42;;;;;;;18.20;15.25;;;26.80;99.90;;;;;;5023956;28;20049;-86
2022/05/19 11:55:20;;;;;;;14.15;12.50;;;26.80;99.90;;;;;;5037876;28;20095;-86
2022/05/19 11:58:09;;;;;;;13.48;12.07;;;27.00;99.90;;;;;;5052797;28;20100;-86
2022/05/19 12:00:52;;;;;;;12.20;11.00;;;27.20;99.90;;;;;;5052362;28;20139;-86
2022/05/19 12:03:36;;;;;;;13.57;12.27;;;27.00;99.90;;;;;;5037442;28;20088;-87
2022/05/19 12:06:16;;;;;;;12.93;11.63;;;27.00;99.90;;;;;;5037464;28;20057;-86
2022/05/19 12:08:54;;;;;;;11.80;10.60;;;26.70;99.90;;;;;;5054501;28;20549;-87
2022/05/19 12:11:33;;;;;;;12.10;9.35;;;27.00;99.90;;;;;;5038379;28;20556;-87
2022/05/19 12:14:19;;;;;;;11.98;9.00;;;26.80;99.90;;;;;;5054831;28;20558;-86
2022/05/19 12:16:52;;;;;;;11.65;10.40;;;27.00;99.90;;;;;;5035782;28;20049;-87
2022/05/19 12:19:43;;;;;;;9.85;8.77;;;27.20;99.90;;;;;;5052385;28;20049;-86
2022/05/19 12:22:39;;;;;;;9.75;8.57;;;27.00;99.90;;;;;;5052272;28;20056;-86
2022/05/19 12:25:08;;;;;;;8.40;7.55;;;26.90;99.90;;;;;;5036614;28;20107;-86
2022/05/19 12:27:36;;;;;;;9.15;7.28;;;27.00;99.90;;;;;;5052005;28;20052;-87
2022/05/19 12:33:22;;;;;;;6.95;4.63;;;26.80;99.90;;;;;;5053309;28;20128;-87
2022/05/19 12:35:51;;;;;;;5.18;4.07;;;26.90;99.90;;;;;;5052532;28;20096;-86
2022/05/19 12:38:37;;;;;;;5.47;4.50;;;26.80;99.90;;;;;;5036174;28;20493;-88
2022/05/19 12:41:09;;;;;;;4.90;4.32;;;26.60;99.90;;;;;;5033069;28;20152;-87
2022/05/19 12:43:42;;;;;;;5.05;3.65;;;26.40;99.90;;;;;;5032314;28;20092;-88
2022/05/19 12:46:12;;;;;;;4.97;3.65;;;26.40;99.90;;;;;;5000774;28;20064;-88
2022/05/19 12:48:38;;;;;;;4.53;3.33;;;26.30;99.90;;;;;;5015621;28;20065;-87
2022/05/19 12:51:11;;;;;;;3.28;2.97;;;26.10;99.90;;;;;;5052216;28;20053;-87
2022/05/19 12:53:43;;;;;;;3.40;3.00;;;26.10;99.90;;;;;;5052269;28;20460;-87
2022/05/19 12:56:09;;;;;;;4.05;3.08;;;25.80;99.90;;;;;;5053032;28;20063;-87
2022/05/19 12:58:39;;;;;;;4.80;3.03;;;25.70;99.90;;;;;;5035011;28;20147;-84
2022/05/19 13:01:13;;;;;;;3.50;3.20;;;25.60;99.90;;;;;;5051491;28;20049;-87
2022/05/19 13:03:39;;;;;;;4.22;3.08;;;25.50;99.90;;;;;;5052253;28;20098;-88
2022/05/19 13:06:05;;;;;;;3.67;2.85;;;25.40;99.90;;;;;;5050367;28;20460;-86
2022/05/19 13:08:33;;;;;;;4.57;3.20;;;25.30;99.90;;;;;;5034907;28;20057;-86